NCAR-RAP Real-Time Weather Data

Output produced by METARs form (12 May 2021  11:36 UTC)
found at http://weather.rap.ucar.edu/surface/
 
KMDT 121056Z 30013KT 10SM SCT100 08/M01 A3023 RMK AO2 SLP238 T00781011
KMDT 120956Z 30010KT 10SM FEW045 SCT100 07/M02 A3022 RMK AO2 SLP233 T00721017
KMDT 120856Z 31010KT 10SM FEW250 08/M02 A3020 RMK AO2 SLP227 T00781022 58005
KMDT 120756Z 31009KT 10SM SCT250 08/M03 A3020 RMK AO2 SLP229 T00781028
KMDT 120656Z 30008KT 10SM FEW250 08/M02 A3021 RMK AO2 SLP230 T00831022
KMDT 120556Z 32008KT 10SM FEW250 09/M04 A3021 RMK AO2 SLP232 T00941044 10150 20094 51014
KMDT 120456Z 32009KT 10SM FEW250 10/M05 A3021 RMK AO2 SLP230 T01001050 401720083
KMDT 120356Z 31011KT 10SM FEW250 11/M06 A3019 RMK AO2 SLP225 T01111061
KMDT 120256Z 32012G22KT 10SM FEW250 12/M06 A3017 RMK AO2 SLP218 T01221056 53032
KMDT 120156Z 31012KT 10SM FEW090 FEW250 13/M04 A3013 RMK AO2 SLP205 T01281039
KMDT 120056Z 31011KT 10SM FEW070 FEW110 SCT250 14/M04 A3010 RMK AO2 SLP195 T01391039
KMDT 112356Z 30014KT 10SM FEW070 SCT100 BKN250 15/M03 A3007 RMK AO2 SLP185 T01501033 10172 20150 53012
KMDT 112256Z 30012KT 10SM FEW070 SCT095 BKN250 16/01 A3005 RMK AO2 SLP177 T01610011
KMDT 112156Z 31015KT 10SM FEW075 BKN095 16/00 A3004 RMK AO2 PK WND 29028/2115 SLP175 T01610000
KMDT 112056Z 29013KT 10SM SCT070 BKN110 17/03 A3004 RMK AO2 SLP173 T01720028 56009
KMDT 111956Z 27016G22KT 10SM FEW070 BKN100 17/02 A3004 RMK AO2 SLP173 T01720017
KMDT 111856Z 28016KT 10SM FEW070 BKN100 BKN250 16/02 A3006 RMK AO2 SLP179 T01610022